createdAt,value
2023-09-05T00:02:17.343Z,95.70
2023-09-05T00:04:45.941Z,95.70
2023-09-05T00:07:13.336Z,95.70
2023-09-05T00:09:40.225Z,95.70
2023-09-05T00:12:08.203Z,95.70
2023-09-05T00:14:36.384Z,95.70
2023-09-05T00:17:03.610Z,95.70
2023-09-05T00:19:45.710Z,95.70
2023-09-05T00:22:39.745Z,95.70
2023-09-05T00:25:18.975Z,95.70
2023-09-05T00:27:46.254Z,95.70
2023-09-05T00:30:15.722Z,95.70
2023-09-05T00:32:48.991Z,95.70
2023-09-05T00:35:21.472Z,95.70
2023-09-05T00:37:52.115Z,95.70
2023-09-05T00:40:24.322Z,95.70
2023-09-05T00:42:59.501Z,95.70
2023-09-05T00:45:31.183Z,95.70
2023-09-05T00:48:03.262Z,95.70
2023-09-05T00:50:30.347Z,95.70
2023-09-05T00:52:58.986Z,95.70
2023-09-05T00:55:50.225Z,95.70
2023-09-05T00:58:25.556Z,95.70
2023-09-05T01:00:55.586Z,95.70
2023-09-05T01:03:22.623Z,95.70
2023-09-05T01:05:55.764Z,95.70
2023-09-05T01:08:33.962Z,95.70
2023-09-05T01:11:01.905Z,95.70
2023-09-05T01:13:32.236Z,95.70
2023-09-05T01:15:59.255Z,95.70
2023-09-05T01:18:26.178Z,95.70
2023-09-05T01:21:08.353Z,95.70
2023-09-05T01:23:42.617Z,95.70
2023-09-05T01:26:10.581Z,95.70
2023-09-05T01:28:42.867Z,95.70
2023-09-05T01:31:13.519Z,95.70
2023-09-05T01:33:41.183Z,95.70
2023-09-05T01:36:09.165Z,95.70
2023-09-05T01:38:36.366Z,95.70
2023-09-05T01:41:03.346Z,95.70
2023-09-05T01:43:30.292Z,95.70
2023-09-05T01:46:03.270Z,95.70
2023-09-05T01:48:33.087Z,95.70
2023-09-05T01:51:02.943Z,95.70
2023-09-05T01:53:41.554Z,95.70
2023-09-05T01:56:08.493Z,95.70
2023-09-05T01:58:35.963Z,95.70
2023-09-05T02:01:05.982Z,95.70
2023-09-05T02:03:33.130Z,95.70
2023-09-05T02:06:11.349Z,95.70
2023-09-05T02:09:00.736Z,95.70
2023-09-05T02:11:36.850Z,95.70
2023-09-05T02:14:41.315Z,95.70
2023-09-05T02:17:24.108Z,95.70
2023-09-05T02:19:51.007Z,95.70
2023-09-05T02:22:17.893Z,95.70
2023-09-05T02:24:44.722Z,95.70
2023-09-05T02:27:11.691Z,95.70
2023-09-05T02:29:38.627Z,95.70
2023-09-05T02:32:05.852Z,95.70
2023-09-05T02:34:32.855Z,95.70
2023-09-05T02:37:00.741Z,95.70
2023-09-05T02:39:51.433Z,95.70
2023-09-05T02:42:18.443Z,95.70
2023-09-05T02:44:45.989Z,95.70
2023-09-05T02:47:15.543Z,95.70
2023-09-05T02:49:42.470Z,95.70
2023-09-05T02:52:11.569Z,95.70
2023-09-05T02:54:38.974Z,95.70
2023-09-05T02:57:05.808Z,95.70
2023-09-05T02:59:32.637Z,95.70
2023-09-05T03:01:59.478Z,95.70
2023-09-05T03:04:27.778Z,95.70
2023-09-05T03:06:54.647Z,95.70
2023-09-05T03:09:21.518Z,95.70
2023-09-05T03:11:48.357Z,95.70
2023-09-05T03:14:15.227Z,95.70
2023-09-05T03:16:42.062Z,95.70
2023-09-05T03:19:13.168Z,95.70
2023-09-05T03:21:40.486Z,95.70
2023-09-05T03:24:07.658Z,95.70
2023-09-05T03:26:34.632Z,95.70
2023-09-05T03:29:04.760Z,95.70
2023-09-05T03:31:34.104Z,95.70
2023-09-05T03:34:01.142Z,95.70
2023-09-05T03:36:28.240Z,95.70
2023-09-05T03:38:55.112Z,95.70
2023-09-05T03:41:21.917Z,95.70
2023-09-05T03:43:48.794Z,95.70
2023-09-05T03:46:15.751Z,95.70
2023-09-05T03:48:42.953Z,95.70
2023-09-05T03:51:10.011Z,95.70
2023-09-05T03:53:38.560Z,95.70
2023-09-05T03:56:05.677Z,95.70
2023-09-05T03:58:32.909Z,95.70
2023-09-05T04:01:03.992Z,95.70
2023-09-05T04:03:33.693Z,95.70
2023-09-05T04:06:01.908Z,95.70
2023-09-05T04:08:28.736Z,95.70
2023-09-05T04:11:00.827Z,95.70
2023-09-05T04:13:28.722Z,95.70
2023-09-05T04:15:55.706Z,95.70
2023-09-05T04:18:22.634Z,95.70
2023-09-05T04:20:57.999Z,95.70
2023-09-05T04:23:25.802Z,95.70
2023-09-05T04:25:58.239Z,95.70
2023-09-05T04:28:26.636Z,95.70
2023-09-05T04:30:55.810Z,95.70
2023-09-05T04:33:25.460Z,95.70
2023-09-05T04:35:52.931Z,95.70
2023-09-05T04:38:19.953Z,95.70
2023-09-05T04:40:47.003Z,95.70
2023-09-05T04:43:13.882Z,95.70
2023-09-05T04:45:40.682Z,95.70
2023-09-05T04:48:07.890Z,95.70
2023-09-05T04:50:34.772Z,95.70
2023-09-05T04:53:01.681Z,95.70
2023-09-05T04:55:28.504Z,95.70
2023-09-05T04:57:55.371Z,95.70
2023-09-05T05:00:24.658Z,95.70
2023-09-05T05:02:51.612Z,95.70
2023-09-05T05:05:18.607Z,95.70
2023-09-05T05:07:46.666Z,95.70
2023-09-05T05:10:13.853Z,95.70
2023-09-05T05:12:41.251Z,95.70
2023-09-05T05:15:09.313Z,95.70
2023-09-05T05:17:37.652Z,95.70
2023-09-05T05:20:06.332Z,95.70
2023-09-05T05:22:34.184Z,95.70
2023-09-05T05:25:01.013Z,95.70
2023-09-05T05:27:27.949Z,95.70
2023-09-05T05:29:54.766Z,95.70
2023-09-05T05:32:21.568Z,95.70
2023-09-05T05:34:49.935Z,95.70
2023-09-05T05:37:17.659Z,95.70
2023-09-05T05:39:44.985Z,95.70
2023-09-05T05:42:12.441Z,95.70
2023-09-05T05:44:41.026Z,95.70
2023-09-05T05:47:10.555Z,95.70
2023-09-05T05:49:37.375Z,95.70
2023-09-05T05:52:04.907Z,95.70
2023-09-05T05:54:31.758Z,95.70
2023-09-05T05:56:58.688Z,95.70
2023-09-05T05:59:28.344Z,95.70
2023-09-05T06:01:56.691Z,95.70
2023-09-05T06:04:25.164Z,95.70
2023-09-05T06:06:52.566Z,95.70
2023-09-05T06:09:19.725Z,95.70
2023-09-05T06:11:47.213Z,95.70
2023-09-05T06:14:17.864Z,95.70
2023-09-05T06:16:47.936Z,95.70
2023-09-05T06:19:16.425Z,95.70
2023-09-05T06:21:47.805Z,95.70
2023-09-05T06:24:15.530Z,95.70
2023-09-05T06:26:46.078Z,95.70
2023-09-05T06:29:12.967Z,95.70
2023-09-05T06:31:39.907Z,95.70
2023-09-05T06:34:06.785Z,95.70
2023-09-05T06:36:33.583Z,95.70
2023-09-05T06:39:00.433Z,95.70
2023-09-05T06:41:27.695Z,95.70
2023-09-05T06:43:56.999Z,95.70
2023-09-05T06:46:23.871Z,95.70
2023-09-05T06:48:50.703Z,95.70
2023-09-05T06:51:17.647Z,95.70
2023-09-05T06:53:44.688Z,95.70
2023-09-05T06:56:11.577Z,95.70
2023-09-05T06:58:38.355Z,95.70
2023-09-05T07:01:06.255Z,95.70
2023-09-05T07:03:33.357Z,95.70
2023-09-05T07:06:06.681Z,95.70
2023-09-05T07:08:35.039Z,95.70
2023-09-05T07:11:02.400Z,95.70
2023-09-05T07:13:32.435Z,95.70
2023-09-05T07:15:59.645Z,95.70
2023-09-05T07:18:29.720Z,95.70
2023-09-05T07:20:57.863Z,95.70
2023-09-05T07:23:24.744Z,95.70
2023-09-05T07:25:53.939Z,95.70
2023-09-05T07:28:20.949Z,95.70
2023-09-05T07:30:47.823Z,95.70
2023-09-05T07:33:14.751Z,95.70
2023-09-05T07:35:41.612Z,95.70
2023-09-05T07:38:08.505Z,95.70
2023-09-05T07:40:35.474Z,95.70
2023-09-05T07:43:02.530Z,95.70
2023-09-05T07:45:31.632Z,95.70
2023-09-05T07:47:58.523Z,95.70
2023-09-05T07:50:25.437Z,95.70
2023-09-05T07:52:52.282Z,95.70
2023-09-05T07:55:19.196Z,95.70
2023-09-05T07:57:46.177Z,95.70
2023-09-05T08:00:17.176Z,95.70
2023-09-05T08:02:45.116Z,95.70
2023-09-05T08:05:15.585Z,95.70
2023-09-05T08:07:42.539Z,95.70
2023-09-05T08:10:09.859Z,95.70
2023-09-05T08:12:36.795Z,95.70
2023-09-05T08:15:04.084Z,95.70
2023-09-05T08:17:32.217Z,95.70
2023-09-05T08:19:59.637Z,95.70
2023-09-05T08:22:26.608Z,95.70
2023-09-05T08:24:53.897Z,95.70
2023-09-05T08:27:20.754Z,95.70
2023-09-05T08:29:47.831Z,95.70
2023-09-05T08:32:14.861Z,95.70
2023-09-05T08:34:42.111Z,95.70
2023-09-05T08:37:11.138Z,95.70
2023-09-05T08:39:38.046Z,95.70
2023-09-05T08:42:07.320Z,95.70
2023-09-05T08:44:42.043Z,95.70
2023-09-05T08:47:09.101Z,95.40
2023-09-05T08:49:38.948Z,95.20
2023-09-05T08:52:08.415Z,95.20
2023-09-05T08:54:35.541Z,95.30
2023-09-05T08:57:04.823Z,95.20
2023-09-05T08:59:35.349Z,94.90
2023-09-05T09:02:05.013Z,94.60
2023-09-05T09:04:35.931Z,94.70
2023-09-05T09:07:04.509Z,95.00
2023-09-05T09:09:40.947Z,94.30
2023-09-05T09:12:11.532Z,94.00
2023-09-05T09:14:38.465Z,93.20
2023-09-05T09:17:07.923Z,93.20
2023-09-05T09:19:43.884Z,91.40
2023-09-05T09:22:13.959Z,90.70
2023-09-05T09:24:44.165Z,90.60
2023-09-05T09:27:11.196Z,89.40
2023-09-05T09:29:40.582Z,89.00
2023-09-05T09:32:13.512Z,86.80
2023-09-05T09:34:45.281Z,86.20
2023-09-05T09:37:12.670Z,85.30
2023-09-05T09:39:45.971Z,83.90
2023-09-05T09:42:25.704Z,82.90
2023-09-05T09:44:53.605Z,82.60
2023-09-05T09:47:21.018Z,81.90
2023-09-05T09:49:53.124Z,81.00
2023-09-05T09:52:23.814Z,81.20
2023-09-05T09:54:56.235Z,80.20
2023-09-05T09:57:41.995Z,79.20
2023-09-05T10:00:16.403Z,78.10
2023-09-05T10:02:46.132Z,76.90
2023-09-05T10:05:16.424Z,77.20
2023-09-05T10:07:44.928Z,76.90
2023-09-05T10:10:16.592Z,76.80
2023-09-05T10:12:47.276Z,76.50
2023-09-05T10:15:15.469Z,77.90
2023-09-05T10:17:43.787Z,79.40
2023-09-05T10:20:15.410Z,80.20
2023-09-05T10:22:46.292Z,81.00
2023-09-05T10:25:15.063Z,80.70
2023-09-05T10:27:42.026Z,80.50
2023-09-05T10:30:11.891Z,80.70
2023-09-05T10:32:42.940Z,81.70
2023-09-05T10:35:09.769Z,81.00
2023-09-05T10:37:43.805Z,82.80
2023-09-05T10:40:11.957Z,83.30
2023-09-05T10:42:54.321Z,83.90
2023-09-05T10:45:24.660Z,84.10
2023-09-05T10:47:54.891Z,84.80
2023-09-05T10:50:23.989Z,83.50
2023-09-05T10:53:11.711Z,83.50
2023-09-05T10:55:46.232Z,83.70
2023-09-05T10:58:39.570Z,83.00
2023-09-05T11:01:29.619Z,82.70
2023-09-05T11:03:57.445Z,80.80
2023-09-05T11:06:26.659Z,79.00
2023-09-05T11:09:02.852Z,76.60
2023-09-05T11:11:30.293Z,76.10
2023-09-05T11:14:20.839Z,77.10
2023-09-05T11:17:01.406Z,78.20
2023-09-05T11:23:32.534Z,77.80
2023-09-05T11:26:10.887Z,77.80
2023-09-05T11:28:44.481Z,78.50
2023-09-05T11:31:22.721Z,79.20
2023-09-05T11:33:52.719Z,79.60
2023-09-05T11:36:19.850Z,81.00
2023-09-05T11:38:51.676Z,81.50
2023-09-05T11:41:25.149Z,81.40
2023-09-05T11:43:58.982Z,81.40
2023-09-05T11:46:33.077Z,81.20
2023-09-05T11:49:02.246Z,81.80
2023-09-05T11:51:44.314Z,81.90
2023-09-05T11:54:15.307Z,80.80
2023-09-05T11:57:09.789Z,78.70
2023-09-05T11:59:42.459Z,77.00
2023-09-05T12:02:19.656Z,76.80
2023-09-05T12:04:48.913Z,77.40
2023-09-05T12:07:16.336Z,76.60
2023-09-05T12:09:53.921Z,76.80
2023-09-05T12:12:21.616Z,76.70
2023-09-05T12:14:59.740Z,75.20
2023-09-05T12:17:29.565Z,75.80
2023-09-05T12:19:59.280Z,75.10
2023-09-05T12:22:33.807Z,74.40
2023-09-05T12:25:14.446Z,74.50
2023-09-05T12:31:19.294Z,73.40
2023-09-05T12:34:01.892Z,72.90
2023-09-05T12:36:37.594Z,71.90
2023-09-05T12:39:07.059Z,72.20
2023-09-05T12:41:33.950Z,73.30
2023-09-05T12:44:03.858Z,73.20
2023-09-05T12:46:36.332Z,74.80
2023-09-05T12:49:09.740Z,73.40
2023-09-05T12:51:45.492Z,73.10
2023-09-05T12:54:16.957Z,73.80
2023-09-05T12:56:48.565Z,74.80
2023-09-05T12:59:19.207Z,74.70
2023-09-05T13:02:15.555Z,74.00
2023-09-05T13:04:50.709Z,73.90
2023-09-05T13:07:19.993Z,74.00
2023-09-05T13:09:46.983Z,73.80
2023-09-05T13:12:14.015Z,75.40
2023-09-05T13:14:52.668Z,74.50
2023-09-05T13:17:22.130Z,75.00
2023-09-05T13:19:55.426Z,74.30
2023-09-05T13:22:41.786Z,74.30
2023-09-05T13:25:22.811Z,75.50
2023-09-05T13:30:38.401Z,74.90
2023-09-05T13:33:20.696Z,75.10
2023-09-05T13:35:59.848Z,74.00
2023-09-05T13:38:29.818Z,75.00
2023-09-05T13:41:02.728Z,76.00
2023-09-05T13:44:01.242Z,74.60
2023-09-05T13:46:55.657Z,75.30
2023-09-05T13:53:01.989Z,76.30
2023-09-05T13:55:48.741Z,77.30
2023-09-05T13:58:18.239Z,76.40
2023-09-05T14:03:34.095Z,76.10
2023-09-05T14:06:01.379Z,76.60
2023-09-05T14:08:57.011Z,78.30
2023-09-05T14:14:56.623Z,77.70
2023-09-05T14:17:44.480Z,77.60
2023-09-05T14:20:34.820Z,76.70
2023-09-05T14:23:19.788Z,77.40
2023-09-05T14:26:23.600Z,77.10
2023-09-05T14:29:18.204Z,77.10
2023-09-05T14:31:47.417Z,77.90
2023-09-05T14:34:27.497Z,77.60
2023-09-05T14:37:08.774Z,78.70
2023-09-05T14:40:46.866Z,79.10
2023-09-05T14:43:20.597Z,78.20
2023-09-05T14:45:49.715Z,80.30
2023-09-05T14:48:29.713Z,77.70
2023-09-05T14:51:01.027Z,78.70
2023-09-05T14:53:52.595Z,80.30
2023-09-05T14:57:03.534Z,80.40
2023-09-05T14:59:41.425Z,81.30
2023-09-05T15:02:48.986Z,82.90
2023-09-05T15:05:31.405Z,83.20
2023-09-05T15:08:16.290Z,83.40
2023-09-05T15:14:03.811Z,84.90
2023-09-05T15:16:53.098Z,86.00
2023-09-05T15:19:29.343Z,84.80
2023-09-05T15:22:07.760Z,85.80
2023-09-05T15:27:30.782Z,88.60
2023-09-05T15:32:47.045Z,87.30
2023-09-05T15:35:25.840Z,87.90
2023-09-05T15:37:57.027Z,88.00
2023-09-05T15:40:37.701Z,88.30
2023-09-05T15:43:23.513Z,88.30
2023-09-05T15:50:06.467Z,88.80
2023-09-05T15:53:08.327Z,89.00
2023-09-05T15:55:35.963Z,88.90
2023-09-05T15:58:04.430Z,89.30
2023-09-05T16:01:06.744Z,89.00
2023-09-05T16:04:19.383Z,89.40
2023-09-05T16:07:08.277Z,89.90
2023-09-05T16:09:54.027Z,90.30
2023-09-05T16:12:32.930Z,90.50
2023-09-05T16:15:03.480Z,90.90
2023-09-05T16:17:50.502Z,91.30
2023-09-05T16:20:38.904Z,91.70
2023-09-05T16:23:31.301Z,91.50
2023-09-05T16:26:19.084Z,90.90
2023-09-05T16:29:12.732Z,91.50
2023-09-05T16:32:01.784Z,90.80
2023-09-05T16:34:37.316Z,90.30
2023-09-05T16:40:01.690Z,90.70
2023-09-05T16:42:32.047Z,91.30
2023-09-05T16:45:03.673Z,90.90
2023-09-05T16:47:30.566Z,91.30
2023-09-05T16:49:58.024Z,91.40
2023-09-05T16:52:25.088Z,91.50
2023-09-05T16:54:54.829Z,91.30
2023-09-05T16:57:21.837Z,91.80
2023-09-05T16:59:48.811Z,91.60
2023-09-05T17:02:15.765Z,92.20
2023-09-05T17:04:42.862Z,92.50
2023-09-05T17:07:09.672Z,92.60
2023-09-05T17:09:36.621Z,93.10
2023-09-05T17:12:03.722Z,93.90
2023-09-05T17:14:30.769Z,93.30
2023-09-05T17:16:57.940Z,92.90
2023-09-05T17:19:25.689Z,92.90
2023-09-05T17:21:53.786Z,93.40
2023-09-05T17:24:22.169Z,93.60
2023-09-05T17:26:49.087Z,93.30
2023-09-05T17:29:17.387Z,93.20
2023-09-05T17:31:44.732Z,93.30
2023-09-05T17:34:13.302Z,93.40
2023-09-05T17:36:40.224Z,93.30
2023-09-05T17:39:12.655Z,93.40
2023-09-05T17:41:41.218Z,93.50
2023-09-05T17:44:08.045Z,93.40
2023-09-05T17:54:52.410Z,93.40
2023-09-05T17:57:19.429Z,93.50
2023-09-05T17:59:46.470Z,93.30
2023-09-05T18:02:13.878Z,93.30
2023-09-05T18:04:42.058Z,93.90
2023-09-05T18:07:09.220Z,94.50
2023-09-05T18:09:37.802Z,94.90
2023-09-05T18:12:05.443Z,95.30
2023-09-05T18:14:36.264Z,95.50
2023-09-05T18:17:03.553Z,95.70
2023-09-05T18:19:35.194Z,95.70
2023-09-05T18:22:07.633Z,95.70
2023-09-05T18:24:43.021Z,95.70
2023-09-05T18:27:12.785Z,95.70
2023-09-05T18:29:41.292Z,95.70
2023-09-05T18:32:08.181Z,95.70
2023-09-05T18:34:41.405Z,95.70
2023-09-05T18:37:09.114Z,95.70
2023-09-05T18:39:36.793Z,95.70
2023-09-05T18:42:06.856Z,95.70
2023-09-05T18:44:41.622Z,95.70
2023-09-05T18:47:08.966Z,95.70
2023-09-05T18:49:37.242Z,95.70
2023-09-05T18:52:09.151Z,95.70
2023-09-05T18:54:38.813Z,95.70
2023-09-05T18:57:09.071Z,95.70
2023-09-05T18:59:36.024Z,95.70
2023-09-05T19:02:04.618Z,95.70
2023-09-05T19:04:31.834Z,95.70
2023-09-05T19:07:03.842Z,95.70
2023-09-05T19:09:31.042Z,95.70
2023-09-05T19:11:58.071Z,95.70
2023-09-05T19:14:24.973Z,95.70
2023-09-05T19:16:56.338Z,95.70
2023-09-05T19:19:25.188Z,95.70
2023-09-05T19:21:53.519Z,95.70
2023-09-05T19:24:20.631Z,95.70
2023-09-05T19:26:50.392Z,95.70
2023-09-05T19:29:17.320Z,95.70
2023-09-05T19:32:20.868Z,95.70
2023-09-05T19:34:54.026Z,95.70
2023-09-05T19:38:03.291Z,95.70
2023-09-05T19:40:31.407Z,95.70
2023-09-05T19:43:10.558Z,95.70
2023-09-05T19:45:53.085Z,95.70
2023-09-05T19:48:32.124Z,95.70
2023-09-05T19:51:50.007Z,95.70
2023-09-05T19:54:32.590Z,95.70
2023-09-05T19:57:06.240Z,95.70
2023-09-05T19:59:36.128Z,95.70
2023-09-05T20:02:07.085Z,95.70
2023-09-05T20:04:34.248Z,95.70
2023-09-05T20:07:41.752Z,95.70
2023-09-05T20:10:15.046Z,95.70
2023-09-05T20:12:52.649Z,95.70
2023-09-05T20:15:25.270Z,95.70
2023-09-05T20:17:53.164Z,95.70
2023-09-05T20:20:23.800Z,95.70
2023-09-05T20:22:53.211Z,95.70
2023-09-05T20:25:20.234Z,95.70
2023-09-05T20:27:47.255Z,95.70
2023-09-05T20:30:14.794Z,95.70
2023-09-05T20:32:41.814Z,95.70
2023-09-05T20:35:09.183Z,95.70
2023-09-05T20:37:36.082Z,95.70
2023-09-05T20:40:03.723Z,95.70
2023-09-05T20:42:30.616Z,95.70
2023-09-05T20:44:58.952Z,95.70
2023-09-05T20:47:25.906Z,95.70
2023-09-05T20:49:52.870Z,95.70
2023-09-05T20:52:20.446Z,95.70
2023-09-05T20:54:47.313Z,95.70
2023-09-05T20:57:14.175Z,95.70
2023-09-05T20:59:41.086Z,95.70
2023-09-05T21:02:07.980Z,95.70
2023-09-05T21:04:35.489Z,95.70
2023-09-05T21:07:02.619Z,95.70
2023-09-05T21:09:29.664Z,95.70
2023-09-05T21:11:56.596Z,95.70
2023-09-05T21:14:24.745Z,95.70
2023-09-05T21:16:52.429Z,95.70
2023-09-05T21:19:19.507Z,95.70
2023-09-05T21:21:47.994Z,95.70
2023-09-05T21:24:14.935Z,95.70
2023-09-05T21:26:41.769Z,95.70
2023-09-05T21:29:08.655Z,95.70
2023-09-05T21:31:35.531Z,95.70
2023-09-05T21:34:02.735Z,95.70
2023-09-05T21:36:29.695Z,95.70
2023-09-05T21:38:56.617Z,95.70
2023-09-05T21:41:23.554Z,95.70
2023-09-05T21:43:53.592Z,95.70
2023-09-05T21:46:21.163Z,95.70
2023-09-05T21:49:02.259Z,95.70
2023-09-05T21:51:29.208Z,95.70
2023-09-05T21:53:56.141Z,95.70
2023-09-05T21:56:23.173Z,95.70
2023-09-05T21:58:49.997Z,95.70
2023-09-05T22:01:16.925Z,95.70
2023-09-05T22:03:43.920Z,95.70
2023-09-05T22:06:10.846Z,95.70
2023-09-05T22:08:37.655Z,95.70
2023-09-05T22:11:07.422Z,95.70
2023-09-05T22:13:36.757Z,95.70
2023-09-05T22:16:07.382Z,95.70
2023-09-05T22:18:43.893Z,95.70
2023-09-05T22:21:11.687Z,95.70
2023-09-05T22:23:39.354Z,95.70
2023-09-05T22:26:25.538Z,95.70
2023-09-05T22:29:13.037Z,95.70
2023-09-05T22:31:40.211Z,95.70
2023-09-05T22:34:07.111Z,95.70
2023-09-05T22:36:34.055Z,95.70
2023-09-05T22:39:01.058Z,95.70
2023-09-05T22:41:27.959Z,95.70
2023-09-05T22:43:54.952Z,95.70
2023-09-05T22:46:24.510Z,95.70
2023-09-05T22:48:51.659Z,95.70
2023-09-05T22:51:33.254Z,95.70
2023-09-05T22:54:02.952Z,95.70
2023-09-05T22:56:44.187Z,95.70
2023-09-05T22:59:14.927Z,95.70
2023-09-05T23:01:42.033Z,95.70
2023-09-05T23:04:09.175Z,95.70
2023-09-05T23:06:38.088Z,95.70
2023-09-05T23:09:06.178Z,95.70
2023-09-05T23:11:33.221Z,95.70
2023-09-05T23:14:00.172Z,95.70
2023-09-05T23:16:28.746Z,95.70
2023-09-05T23:18:55.712Z,95.70
2023-09-05T23:21:22.650Z,95.70
2023-09-05T23:23:51.097Z,95.70
2023-09-05T23:26:17.935Z,95.70
2023-09-05T23:28:47.928Z,95.70
2023-09-05T23:31:15.185Z,95.70
2023-09-05T23:33:42.148Z,95.70
2023-09-05T23:36:09.029Z,95.70
2023-09-05T23:38:37.138Z,95.70
2023-09-05T23:41:07.031Z,95.70
2023-09-05T23:43:33.990Z,95.70
2023-09-05T23:46:01.534Z,95.70
2023-09-05T23:48:33.177Z,95.70
2023-09-05T23:51:01.938Z,95.70
2023-09-05T23:53:29.192Z,95.70
2023-09-05T23:55:56.057Z,95.70
2023-09-05T23:58:23.443Z,95.70
